createdAt,value
2018-03-24T00:00:32.387Z,16.80
2018-03-24T00:03:00.700Z,14.90
2018-03-24T00:05:28.207Z,15.33
2018-03-24T00:07:56.480Z,16.03
2018-03-24T00:10:25.506Z,17.67
2018-03-24T00:12:53.832Z,16.20
2018-03-24T00:15:21.372Z,14.67
2018-03-24T00:17:48.936Z,17.20
2018-03-24T00:20:16.492Z,18.40
2018-03-24T00:22:44.331Z,16.00
2018-03-24T00:25:11.885Z,15.87
2018-03-24T00:27:39.395Z,16.50
2018-03-24T00:30:06.974Z,16.60
2018-03-24T00:32:34.515Z,16.80
2018-03-24T00:35:02.811Z,18.63
2018-03-24T00:37:30.322Z,17.30
2018-03-24T00:39:57.846Z,15.93
2018-03-24T00:42:25.354Z,16.17
2018-03-24T00:44:52.866Z,17.40
2018-03-24T00:47:20.408Z,17.60
2018-03-24T00:49:48.682Z,19.13
2018-03-24T00:52:16.946Z,18.43
2018-03-24T00:54:45.234Z,18.37
2018-03-24T00:57:13.501Z,19.60
2018-03-24T00:59:41.016Z,18.97
2018-03-24T01:02:08.554Z,20.47
2018-03-24T01:04:36.875Z,19.03
2018-03-24T01:07:04.383Z,18.20
2018-03-24T01:09:31.911Z,19.87
2018-03-24T01:11:59.447Z,18.33
2018-03-24T01:14:27.722Z,18.93
2018-03-24T01:16:56.023Z,18.13
2018-03-24T01:19:23.531Z,19.97
2018-03-24T01:21:51.039Z,18.17
2018-03-24T01:24:18.691Z,20.97
2018-03-24T01:26:46.971Z,20.13
2018-03-24T01:29:15.254Z,20.63
2018-03-24T01:31:44.618Z,21.33
2018-03-24T01:34:12.118Z,19.47
2018-03-24T01:36:40.420Z,20.63
2018-03-24T01:39:07.950Z,18.87
2018-03-24T01:41:35.552Z,17.90
2018-03-24T01:44:03.069Z,19.10
2018-03-24T01:46:30.584Z,17.77
2018-03-24T01:48:58.095Z,18.37
2018-03-24T01:51:25.608Z,17.20
2018-03-24T01:53:54.088Z,19.03
2018-03-24T01:56:21.594Z,19.87
2018-03-24T01:58:49.107Z,18.07
2018-03-24T02:01:17.422Z,21.03
2018-03-24T02:03:44.925Z,18.77
2018-03-24T02:06:13.942Z,20.53
2018-03-24T02:08:42.227Z,20.60
2018-03-24T02:11:10.499Z,21.93
2018-03-24T02:13:37.999Z,20.80
2018-03-24T02:16:05.540Z,20.53
2018-03-24T02:18:33.816Z,20.27
2018-03-24T02:21:05.829Z,20.80
2018-03-24T02:23:33.344Z,22.13
2018-03-24T02:26:02.547Z,21.43
2018-03-24T02:28:30.839Z,22.57
2018-03-24T02:30:59.124Z,20.20
2018-03-24T02:33:26.632Z,21.87
2018-03-24T02:35:54.151Z,19.63
2018-03-24T02:38:21.714Z,18.97
2018-03-24T02:40:49.226Z,20.07
2018-03-24T02:43:16.762Z,18.47
2018-03-24T02:45:44.266Z,19.60
2018-03-24T02:48:11.786Z,21.17
2018-03-24T02:50:39.315Z,21.30
2018-03-24T02:53:07.586Z,21.40
2018-03-24T02:55:35.858Z,21.17
2018-03-24T02:58:05.005Z,20.47
2018-03-24T03:00:32.573Z,22.10
2018-03-24T03:03:00.090Z,20.07
2018-03-24T03:05:28.443Z,21.70
2018-03-24T03:07:55.950Z,21.33
2018-03-24T03:10:24.222Z,20.47
2018-03-24T03:12:51.746Z,20.83
2018-03-24T03:15:19.400Z,21.50
2018-03-24T03:17:46.906Z,20.67
2018-03-24T03:20:15.951Z,23.00
2018-03-24T03:22:43.477Z,22.53
2018-03-24T03:25:10.994Z,22.77
2018-03-24T03:27:38.611Z,23.37
2018-03-24T03:30:06.879Z,23.20
2018-03-24T03:32:35.903Z,23.33
2018-03-24T03:35:04.201Z,21.47
2018-03-24T03:37:31.710Z,23.33
2018-03-24T03:39:59.207Z,21.10
2018-03-24T03:42:27.506Z,23.60
2018-03-24T03:44:55.774Z,22.27
2018-03-24T03:47:23.279Z,22.23
2018-03-24T03:49:50.799Z,23.73
2018-03-24T03:52:19.070Z,21.40
2018-03-24T03:54:46.573Z,20.60
2018-03-24T03:57:14.106Z,21.37
2018-03-24T03:59:41.611Z,22.20
2018-03-24T04:02:09.129Z,24.10
2018-03-24T04:04:36.672Z,21.27
2018-03-24T04:07:04.184Z,24.37
2018-03-24T04:09:31.690Z,23.70
2018-03-24T04:11:59.216Z,21.37
2018-03-24T04:14:26.723Z,21.40
2018-03-24T04:16:54.231Z,22.67
2018-03-24T04:19:21.763Z,21.50
2018-03-24T04:21:49.292Z,25.13
2018-03-24T04:24:16.802Z,25.03
2018-03-24T04:26:45.632Z,23.17
2018-03-24T04:29:13.282Z,22.83
2018-03-24T04:31:41.559Z,22.40
2018-03-24T04:34:09.871Z,22.27
2018-03-24T04:36:37.378Z,24.80
2018-03-24T04:39:05.803Z,24.30
2018-03-24T04:41:33.326Z,23.73
2018-03-24T04:44:02.346Z,20.80
2018-03-24T04:46:30.611Z,23.03
2018-03-24T04:48:58.166Z,21.73
2018-03-24T04:51:25.672Z,20.47
2018-03-24T04:53:53.179Z,23.57
2018-03-24T04:56:20.717Z,24.07
2018-03-24T04:58:48.224Z,21.80
2018-03-24T05:01:16.490Z,21.73
2018-03-24T05:03:44.033Z,24.90
2018-03-24T05:06:11.535Z,22.97
2018-03-24T05:08:39.802Z,21.73
2018-03-24T05:11:07.324Z,23.57
2018-03-24T05:13:34.876Z,23.57
2018-03-24T05:16:02.379Z,23.57
2018-03-24T05:18:29.904Z,22.13
2018-03-24T05:20:57.427Z,23.27
2018-03-24T05:23:25.712Z,24.90
2018-03-24T05:25:54.757Z,25.60
2018-03-24T05:28:22.260Z,22.70
2018-03-24T05:30:49.938Z,25.70
2018-03-24T05:33:18.239Z,25.73
2018-03-24T05:35:46.526Z,24.33
2018-03-24T05:38:14.790Z,25.50
2018-03-24T05:40:43.084Z,25.50
2018-03-24T05:43:11.391Z,23.57
2018-03-24T05:45:39.653Z,23.97
2018-03-24T05:48:07.940Z,25.57
2018-03-24T05:50:36.207Z,24.60
2018-03-24T05:53:04.521Z,24.53
2018-03-24T05:55:32.050Z,24.73
2018-03-24T05:58:00.322Z,28.00
2018-03-24T06:00:29.343Z,26.07
2018-03-24T06:02:57.636Z,26.37
2018-03-24T06:05:25.152Z,25.37
2018-03-24T06:07:52.660Z,25.63
2018-03-24T06:10:20.187Z,24.77
2018-03-24T06:12:49.213Z,26.10
2018-03-24T06:15:17.483Z,26.40
2018-03-24T06:17:45.774Z,26.40
2018-03-24T06:20:14.050Z,24.43
2018-03-24T06:22:42.319Z,23.97
2018-03-24T06:25:09.858Z,25.87
2018-03-24T06:27:37.369Z,26.70
2018-03-24T06:30:05.630Z,25.60
2018-03-24T06:32:33.308Z,27.53
2018-03-24T06:35:01.585Z,28.50
2018-03-24T06:37:29.859Z,28.90
2018-03-24T06:39:57.386Z,27.43
2018-03-24T06:42:24.892Z,30.37
2018-03-24T06:44:53.235Z,30.83
2018-03-24T06:47:20.714Z,30.97
2018-03-24T06:49:49.000Z,30.17
2018-03-24T06:52:16.514Z,30.23
2018-03-24T06:54:44.053Z,29.30
2018-03-24T06:57:12.357Z,30.40
2018-03-24T06:59:39.868Z,30.27
2018-03-24T07:02:07.401Z,28.00
2018-03-24T07:04:34.939Z,30.20
2018-03-24T07:07:02.443Z,30.33
2018-03-24T07:09:29.966Z,31.20
2018-03-24T07:11:57.479Z,28.53
2018-03-24T07:14:24.996Z,29.27
2018-03-24T07:16:52.546Z,27.97
2018-03-24T07:19:20.874Z,28.00
2018-03-24T07:21:48.415Z,26.80
2018-03-24T07:24:16.040Z,25.43
2018-03-24T07:26:43.554Z,28.80
2018-03-24T07:29:11.091Z,28.37
2018-03-24T07:31:39.394Z,27.80
2018-03-24T07:34:06.955Z,27.33
2018-03-24T07:36:34.483Z,26.97
2018-03-24T07:39:02.034Z,26.20
2018-03-24T07:41:31.062Z,26.93
2018-03-24T07:43:59.348Z,27.67
2018-03-24T07:46:26.883Z,26.33
2018-03-24T07:48:54.412Z,27.77
2018-03-24T07:51:21.926Z,26.37
2018-03-24T07:53:50.218Z,25.20
2018-03-24T07:56:17.734Z,24.40
2018-03-24T07:58:45.265Z,24.80
2018-03-24T08:01:12.799Z,24.80
2018-03-24T08:03:40.303Z,24.83
2018-03-24T08:06:07.808Z,22.50
2018-03-24T08:08:35.359Z,23.10
2018-03-24T08:11:02.874Z,21.50
2018-03-24T08:13:30.410Z,23.53
2018-03-24T08:15:57.934Z,24.50
2018-03-24T08:18:25.450Z,21.97
2018-03-24T08:20:53.727Z,22.23
2018-03-24T08:23:22.018Z,22.23
2018-03-24T08:25:50.279Z,21.30
2018-03-24T08:28:18.606Z,25.13
2018-03-24T08:30:46.143Z,24.03
2018-03-24T08:33:14.535Z,24.33
2018-03-24T08:35:42.955Z,24.40
2018-03-24T08:38:10.485Z,24.07
2018-03-24T08:40:38.037Z,23.90
2018-03-24T08:43:06.336Z,24.10
2018-03-24T08:45:33.867Z,25.53
2018-03-24T08:48:02.176Z,24.20
2018-03-24T08:50:30.455Z,23.47
2018-03-24T08:52:58.756Z,24.63
2018-03-24T08:55:26.305Z,22.57
2018-03-24T08:57:54.554Z,24.40
2018-03-24T09:00:22.917Z,22.87
2018-03-24T09:02:50.434Z,22.40
2018-03-24T09:05:18.008Z,22.10
2018-03-24T09:07:45.569Z,22.07
2018-03-24T09:10:13.098Z,21.40
2018-03-24T09:12:40.618Z,20.17
2018-03-24T09:15:08.211Z,18.97
2018-03-24T09:17:35.693Z,20.10
2018-03-24T09:20:03.204Z,19.13
2018-03-24T09:22:30.739Z,18.97
2018-03-24T09:24:59.033Z,18.40
2018-03-24T09:27:26.610Z,18.43
2018-03-24T09:29:54.159Z,17.67
2018-03-24T09:32:21.670Z,16.40
2018-03-24T09:34:49.198Z,15.13
2018-03-24T09:37:16.763Z,15.20
2018-03-24T09:39:44.287Z,15.37
2018-03-24T09:42:12.679Z,13.53
2018-03-24T09:44:40.895Z,12.70
2018-03-24T09:47:08.605Z,12.73
2018-03-24T09:49:36.429Z,10.53
2018-03-24T09:52:04.297Z,11.90
2018-03-24T09:54:31.971Z,10.60
2018-03-24T09:56:59.557Z,10.53
2018-03-24T09:59:27.508Z,10.90
2018-03-24T10:01:55.115Z,12.60
2018-03-24T10:04:22.867Z,13.23
2018-03-24T10:06:50.629Z,12.27
2018-03-24T10:09:18.975Z,11.93
2018-03-24T10:11:48.119Z,12.10
2018-03-24T10:14:15.655Z,13.00
2018-03-24T10:16:43.184Z,12.40
2018-03-24T10:19:10.716Z,11.83
2018-03-24T10:24:50.202Z,11.83
2018-03-24T10:27:18.509Z,12.20
2018-03-24T10:29:46.019Z,13.10
2018-03-24T10:32:13.535Z,12.40
2018-03-24T10:34:41.083Z,12.20
2018-03-24T10:37:09.367Z,12.17
2018-03-24T10:39:37.812Z,11.90
2018-03-24T10:42:05.337Z,11.63
2018-03-24T10:44:32.842Z,11.63
2018-03-24T10:47:01.118Z,11.33
2018-03-24T10:49:28.643Z,10.43
2018-03-24T10:51:56.152Z,10.30
2018-03-24T10:54:23.654Z,9.50
2018-03-24T10:56:51.213Z,9.70
2018-03-24T10:59:19.491Z,10.20
2018-03-24T11:01:47.772Z,10.30
2018-03-24T11:04:16.083Z,9.17
2018-03-24T11:06:43.620Z,9.37
2018-03-24T11:09:11.935Z,8.80
2018-03-24T11:11:40.292Z,9.17
2018-03-24T11:14:07.866Z,9.70
2018-03-24T11:16:35.412Z,10.17
2018-03-24T11:19:02.961Z,10.43
2018-03-24T11:21:31.238Z,10.03
2018-03-24T11:23:59.578Z,9.67
2018-03-24T11:26:27.105Z,10.43
2018-03-24T11:28:54.639Z,10.77
2018-03-24T11:31:22.184Z,10.77
2018-03-24T11:33:49.722Z,10.47
2018-03-24T11:36:17.230Z,11.40
2018-03-24T11:38:44.744Z,11.10
2018-03-24T11:41:12.486Z,11.33
2018-03-24T11:43:40.810Z,11.07
2018-03-24T11:46:08.353Z,11.50
2018-03-24T11:48:35.912Z,11.30
2018-03-24T11:51:03.568Z,11.50
2018-03-24T11:53:43.698Z,12.70
2018-03-24T11:56:11.258Z,11.02
2018-03-24T11:58:38.822Z,11.80
2018-03-24T12:01:07.159Z,11.83
2018-03-24T12:03:34.688Z,11.50
2018-03-24T12:06:02.971Z,12.60
2018-03-24T12:08:31.285Z,12.17
2018-03-24T12:10:58.801Z,12.10
2018-03-24T12:13:26.323Z,12.37
2018-03-24T12:15:53.980Z,12.77
2018-03-24T12:18:21.506Z,12.77
2018-03-24T12:20:49.016Z,12.10
2018-03-24T12:23:16.564Z,11.90
2018-03-24T12:25:44.091Z,13.53
2018-03-24T12:28:11.636Z,13.33
2018-03-24T12:30:39.182Z,12.70
2018-03-24T12:33:06.707Z,13.70
2018-03-24T12:35:35.007Z,12.43
2018-03-24T12:38:02.576Z,11.97
2018-03-24T12:40:30.090Z,13.20
2018-03-24T12:42:59.187Z,13.17
2018-03-24T12:45:28.333Z,11.33
2018-03-24T12:47:55.843Z,12.27
2018-03-24T12:50:23.359Z,12.63
2018-03-24T12:52:50.901Z,12.17
2018-03-24T12:55:19.182Z,12.97
2018-03-24T12:57:47.559Z,13.03
2018-03-24T13:00:16.121Z,12.33
2018-03-24T13:02:43.631Z,12.73
2018-03-24T13:05:11.947Z,12.13
2018-03-24T13:07:39.485Z,13.40
2018-03-24T13:10:07.020Z,14.07
2018-03-24T13:12:35.301Z,13.17
2018-03-24T13:15:03.594Z,13.53
2018-03-24T13:17:31.875Z,13.20
2018-03-24T13:20:00.164Z,13.43
2018-03-24T13:22:27.705Z,12.37
2018-03-24T13:24:55.984Z,12.17
2018-03-24T13:27:23.575Z,13.03
2018-03-24T13:29:51.123Z,13.90
2018-03-24T13:32:19.399Z,13.50
2018-03-24T13:34:46.917Z,13.23
2018-03-24T13:37:14.443Z,13.13
2018-03-24T13:39:42.726Z,12.27
2018-03-24T13:42:11.006Z,12.70
2018-03-24T13:44:39.374Z,12.37
2018-03-24T13:47:07.659Z,12.60
2018-03-24T13:49:35.946Z,13.37
2018-03-24T13:52:04.263Z,12.63
2018-03-24T13:54:31.788Z,13.40
2018-03-24T13:57:00.064Z,12.30
2018-03-24T13:59:28.359Z,12.53
2018-03-24T14:01:56.660Z,13.43
2018-03-24T14:04:24.175Z,12.37
2018-03-24T14:06:51.702Z,12.90
2018-03-24T14:09:19.222Z,12.90
2018-03-24T14:11:47.529Z,13.40
2018-03-24T14:14:15.057Z,12.57
2018-03-24T14:16:42.577Z,11.63
2018-03-24T14:19:10.100Z,13.30
2018-03-24T14:21:38.395Z,12.13
2018-03-24T14:24:05.962Z,12.10
2018-03-24T14:26:33.485Z,11.87
2018-03-24T14:29:01.791Z,13.17
2018-03-24T14:31:30.074Z,11.77
2018-03-24T14:33:58.361Z,12.30
2018-03-24T14:36:26.659Z,11.93
2018-03-24T14:38:54.166Z,11.70
2018-03-24T14:41:21.787Z,11.97
2018-03-24T14:43:52.956Z,11.83
2018-03-24T14:46:20.554Z,12.20
2018-03-24T14:48:49.389Z,12.10
2018-03-24T14:51:20.559Z,12.43
2018-03-24T14:53:48.070Z,12.20
2018-03-24T14:56:15.680Z,13.00
2018-03-24T14:58:43.222Z,12.70
2018-03-24T15:01:15.080Z,12.90
2018-03-24T15:03:42.624Z,12.27
2018-03-24T15:06:10.937Z,12.70
2018-03-24T15:08:38.599Z,12.40
2018-03-24T15:11:06.151Z,12.40
2018-03-24T15:13:34.460Z,12.30
2018-03-24T15:16:01.996Z,11.80
2018-03-24T15:18:50.163Z,12.63
2018-03-24T15:21:18.314Z,12.80
2018-03-24T15:23:45.890Z,11.83
2018-03-24T15:26:13.413Z,11.93
2018-03-24T15:28:53.052Z,11.30
2018-03-24T15:31:33.368Z,12.73
2018-03-24T15:34:12.950Z,12.47
2018-03-24T15:36:44.940Z,12.07
2018-03-24T15:39:13.258Z,12.10
2018-03-24T15:41:40.915Z,12.43
2018-03-24T15:44:08.449Z,11.77
2018-03-24T15:46:37.041Z,11.90
2018-03-24T15:49:04.932Z,11.73
2018-03-24T15:51:33.287Z,13.00
2018-03-24T15:54:01.648Z,11.73
2018-03-24T15:56:30.086Z,12.37
2018-03-24T15:58:57.694Z,12.17
2018-03-24T16:01:26.579Z,12.57
2018-03-24T16:03:54.108Z,11.77
2018-03-24T16:06:21.618Z,12.30
2018-03-24T16:08:49.143Z,12.13
2018-03-24T16:11:16.650Z,11.97
2018-03-24T16:13:44.160Z,12.60
2018-03-24T16:16:11.699Z,12.90
2018-03-24T16:18:40.097Z,11.83
2018-03-24T16:21:08.373Z,11.43
2018-03-24T16:23:36.708Z,11.10
2018-03-24T16:26:05.072Z,11.80
2018-03-24T16:28:32.654Z,11.73
2018-03-24T16:31:00.223Z,11.63
2018-03-24T16:33:27.763Z,12.57
2018-03-24T16:35:55.274Z,12.47
2018-03-24T16:38:24.298Z,11.57
2018-03-24T16:40:52.571Z,11.67
2018-03-24T16:43:20.878Z,11.37
2018-03-24T16:45:48.446Z,11.63
2018-03-24T16:48:16.050Z,12.80
2018-03-24T16:50:43.667Z,12.07
2018-03-24T16:53:11.188Z,12.13
2018-03-24T16:55:38.711Z,14.07
2018-03-24T16:58:06.210Z,14.67
2018-03-24T17:00:33.778Z,15.40
2018-03-24T17:03:02.063Z,14.97
2018-03-24T17:05:31.083Z,16.20
2018-03-24T17:07:59.395Z,15.77
2018-03-24T17:10:26.902Z,15.47
2018-03-24T17:12:54.411Z,15.40
2018-03-24T17:15:21.954Z,15.00
2018-03-24T17:17:50.225Z,15.80
2018-03-24T17:20:18.497Z,15.80
2018-03-24T17:22:47.539Z,16.93
2018-03-24T17:25:15.052Z,17.37
2018-03-24T17:27:42.563Z,16.40
2018-03-24T17:30:10.118Z,16.67
2018-03-24T17:32:38.417Z,15.60
2018-03-24T17:35:05.927Z,16.37
2018-03-24T17:37:33.738Z,16.87
2018-03-24T17:40:01.243Z,16.73
2018-03-24T17:42:28.750Z,17.43
2018-03-24T17:44:57.056Z,16.47
2018-03-24T17:47:24.616Z,17.10
2018-03-24T17:49:52.159Z,16.23
2018-03-24T17:52:20.463Z,15.83
2018-03-24T17:54:47.983Z,16.77
2018-03-24T17:57:16.296Z,16.37
2018-03-24T17:59:44.588Z,18.10
2018-03-24T18:02:12.103Z,17.23
2018-03-24T18:04:39.610Z,16.50
2018-03-24T18:07:07.143Z,16.60
2018-03-24T18:09:34.662Z,17.10
2018-03-24T18:12:02.172Z,16.73
2018-03-24T18:14:30.499Z,17.20
2018-03-24T18:16:58.051Z,17.67
2018-03-24T18:19:26.406Z,16.93
2018-03-24T18:21:54.706Z,17.63
2018-03-24T18:24:22.992Z,16.43
2018-03-24T18:26:51.299Z,17.00
2018-03-24T18:29:18.836Z,16.17
2018-03-24T18:31:47.122Z,17.40
2018-03-24T18:34:14.630Z,17.30
2018-03-24T18:36:42.971Z,17.20
2018-03-24T18:39:10.491Z,17.00
2018-03-24T18:41:39.525Z,17.50
2018-03-24T18:44:07.818Z,17.87
2018-03-24T18:46:35.346Z,16.50
2018-03-24T18:49:03.655Z,18.20
2018-03-24T18:51:32.020Z,17.43
2018-03-24T18:54:00.288Z,18.43
2018-03-24T18:56:27.802Z,18.80
2018-03-24T18:58:55.363Z,17.53
2018-03-24T19:01:22.894Z,18.23
2018-03-24T19:03:51.171Z,18.00
2018-03-24T19:06:19.485Z,19.33
2018-03-24T19:08:47.010Z,17.93
2018-03-24T19:11:14.519Z,17.73
2018-03-24T19:13:42.077Z,19.90
2018-03-24T19:16:09.638Z,18.80
2018-03-24T19:18:37.907Z,18.97
2018-03-24T19:21:06.204Z,18.70
2018-03-24T19:23:33.759Z,18.80
2018-03-24T19:26:02.031Z,18.00
2018-03-24T19:28:30.350Z,19.40
2018-03-24T19:30:57.859Z,17.80
2018-03-24T19:33:26.189Z,18.33
2018-03-24T19:35:53.735Z,18.97
2018-03-24T19:38:21.700Z,18.67
2018-03-24T19:40:49.972Z,19.27
2018-03-24T19:43:18.300Z,18.07
2018-03-24T19:45:45.858Z,19.30
2018-03-24T19:48:13.372Z,19.57
2018-03-24T19:50:41.670Z,18.83
2018-03-24T19:53:09.982Z,18.37
2018-03-24T19:55:37.644Z,18.53
2018-03-24T19:58:05.176Z,18.73
2018-03-24T20:00:33.484Z,18.97
2018-03-24T20:03:01.007Z,18.60
2018-03-24T20:05:29.401Z,18.83
2018-03-24T20:07:57.702Z,18.93
2018-03-24T20:10:25.982Z,18.60
2018-03-24T20:12:53.524Z,18.70
2018-03-24T20:15:21.811Z,18.57
2018-03-24T20:17:50.087Z,19.87
2018-03-24T20:20:18.395Z,19.63
2018-03-24T20:22:45.916Z,18.53
2018-03-24T20:25:13.446Z,19.50
2018-03-24T20:27:40.995Z,19.73
2018-03-24T20:30:08.498Z,19.10
2018-03-24T20:32:36.009Z,19.50
2018-03-24T20:35:03.553Z,18.57
2018-03-24T20:37:31.843Z,18.80
2018-03-24T20:40:00.116Z,19.87
2018-03-24T20:42:27.655Z,19.30
2018-03-24T20:44:55.168Z,20.80
2018-03-24T20:47:22.687Z,19.93
2018-03-24T20:49:50.225Z,19.77
2018-03-24T20:52:17.758Z,19.03
2018-03-24T20:54:46.131Z,19.23
2018-03-24T20:57:14.446Z,19.73
2018-03-24T20:59:41.954Z,20.70
2018-03-24T21:02:09.463Z,18.60
2018-03-24T21:04:37.023Z,19.20
2018-03-24T21:07:04.559Z,20.27
2018-03-24T21:09:32.839Z,19.63
2018-03-24T21:12:00.393Z,18.80
2018-03-24T21:14:28.672Z,19.47
2018-03-24T21:16:57.692Z,19.07
2018-03-24T21:19:26.284Z,19.90
2018-03-24T21:21:54.562Z,20.13
2018-03-24T21:24:22.882Z,19.70
2018-03-24T21:26:50.437Z,20.93
2018-03-24T21:29:18.750Z,20.97
2018-03-24T21:31:46.270Z,21.03
2018-03-24T21:34:13.794Z,19.63
2018-03-24T21:36:41.328Z,20.97
2018-03-24T21:39:08.851Z,20.40
2018-03-24T21:41:37.148Z,20.67
2018-03-24T21:44:04.708Z,21.03
2018-03-24T21:46:32.239Z,20.83
2018-03-24T21:48:59.787Z,21.17
2018-03-24T21:51:27.287Z,21.00
2018-03-24T21:53:56.512Z,20.83
2018-03-24T21:56:24.399Z,20.40
2018-03-24T21:58:52.819Z,20.83
2018-03-24T22:01:21.462Z,20.90
2018-03-24T22:03:49.108Z,20.17
2018-03-24T22:06:17.478Z,19.87
2018-03-24T22:08:45.874Z,19.20
2018-03-24T22:11:15.142Z,20.47
2018-03-24T22:13:46.881Z,21.00
2018-03-24T22:16:15.678Z,20.10
2018-03-24T22:18:43.364Z,20.87
2018-03-24T22:21:11.066Z,20.67
2018-03-24T22:23:40.516Z,19.40
2018-03-24T22:26:08.173Z,19.43
2018-03-24T22:28:35.779Z,18.87
2018-03-24T22:31:03.392Z,19.47
2018-03-24T22:33:31.124Z,19.37
2018-03-24T22:35:58.810Z,19.23
2018-03-24T22:38:27.330Z,19.67
2018-03-24T22:40:56.334Z,19.60
2018-03-24T22:43:23.957Z,20.13
2018-03-24T22:45:52.349Z,20.57
2018-03-24T22:48:21.503Z,20.67
2018-03-24T22:50:49.100Z,20.43
2018-03-24T22:53:18.192Z,20.27
2018-03-24T22:55:45.748Z,19.43
2018-03-24T22:58:14.078Z,20.07
2018-03-24T23:00:41.735Z,19.47
2018-03-24T23:03:09.413Z,20.53
2018-03-24T23:05:36.932Z,20.40
2018-03-24T23:08:04.561Z,20.17
2018-03-24T23:10:32.183Z,19.87
2018-03-24T23:13:00.551Z,21.13
2018-03-24T23:15:28.115Z,20.37
2018-03-24T23:17:55.687Z,20.43
2018-03-24T23:20:23.999Z,19.10
2018-03-24T23:22:51.518Z,19.43
2018-03-24T23:25:19.834Z,20.90
2018-03-24T23:27:47.343Z,20.53
2018-03-24T23:30:14.873Z,20.57
2018-03-24T23:32:42.405Z,20.03
2018-03-24T23:35:10.708Z,21.30
2018-03-24T23:37:38.249Z,20.10
2018-03-24T23:40:06.650Z,20.03
2018-03-24T23:42:34.438Z,19.57
2018-03-24T23:45:01.995Z,19.33
2018-03-24T23:47:29.526Z,18.63
2018-03-24T23:49:57.054Z,19.00
2018-03-24T23:52:24.571Z,19.63
2018-03-24T23:54:52.888Z,19.63
2018-03-24T23:57:20.420Z,18.90
2018-03-24T23:59:48.755Z,19.87
